createdAt,value
2022-11-15T00:00:53.943Z,100814.22
2022-11-15T00:03:22.106Z,100813.28
2022-11-15T00:05:48.804Z,100812.41
2022-11-15T00:08:15.656Z,100807.16
2022-11-15T00:10:42.373Z,100807.91
2022-11-15T00:13:09.775Z,100809.94
2022-11-15T00:15:37.643Z,100803.00
2022-11-15T00:18:05.401Z,100805.75
2022-11-15T00:20:32.601Z,100799.53
2022-11-15T00:22:59.354Z,100807.91
2022-11-15T00:25:26.191Z,100795.28
2022-11-15T00:27:56.352Z,100797.84
2022-11-15T00:30:23.216Z,100794.31
2022-11-15T00:32:50.106Z,100791.28
2022-11-15T00:35:17.023Z,100786.22
2022-11-15T00:37:43.824Z,100787.78
2022-11-15T00:40:11.021Z,100789.81
2022-11-15T00:42:37.817Z,100791.34
2022-11-15T00:45:04.786Z,100783.59
2022-11-15T00:47:31.724Z,100786.34
2022-11-15T00:49:59.275Z,100780.97
2022-11-15T00:52:26.538Z,100788.00
2022-11-15T00:54:54.389Z,100783.91
2022-11-15T00:57:21.340Z,100777.31
2022-11-15T00:59:48.193Z,100774.59
2022-11-15T01:02:15.009Z,100778.00
2022-11-15T01:04:41.979Z,100769.84
2022-11-15T01:07:08.807Z,100762.50
2022-11-15T01:09:35.660Z,100755.53
2022-11-15T01:12:02.877Z,100767.00
2022-11-15T01:14:29.739Z,100765.13
2022-11-15T01:16:56.731Z,100760.81
2022-11-15T01:19:23.602Z,100759.88
2022-11-15T01:21:51.180Z,100749.44
2022-11-15T01:24:18.299Z,100756.50
2022-11-15T01:26:45.337Z,100755.75
2022-11-15T01:29:12.106Z,100765.22
2022-11-15T01:31:39.297Z,100767.19
2022-11-15T01:34:06.359Z,100758.56
2022-11-15T01:36:33.175Z,100752.84
2022-11-15T01:39:00.343Z,100753.75
2022-11-15T01:41:29.940Z,100758.09
2022-11-15T01:44:00.619Z,100770.25
2022-11-15T01:46:30.374Z,100759.81
2022-11-15T01:48:59.011Z,100761.97
2022-11-15T01:51:27.001Z,100767.34
2022-11-15T01:53:56.103Z,100766.75
2022-11-15T01:56:25.131Z,100777.44
2022-11-15T01:58:53.108Z,100777.25
2022-11-15T02:01:20.653Z,100762.06
2022-11-15T02:03:50.668Z,100764.12
2022-11-15T02:06:17.555Z,100762.31
2022-11-15T02:08:45.276Z,100751.00
2022-11-15T02:11:12.117Z,100747.28
2022-11-15T02:13:38.997Z,100743.72
2022-11-15T02:16:26.964Z,100746.28
2022-11-15T02:18:58.020Z,100735.13
2022-11-15T02:21:36.003Z,100735.44
2022-11-15T02:24:09.049Z,100726.66
2022-11-15T02:26:54.692Z,100721.72
2022-11-15T02:29:31.652Z,100730.47
2022-11-15T02:32:21.874Z,100713.22
2022-11-15T02:34:55.555Z,100721.69
2022-11-15T02:37:28.478Z,100730.78
2022-11-15T02:40:02.202Z,100737.94
2022-11-15T02:42:50.700Z,100734.28
2022-11-15T02:45:26.909Z,100729.72
2022-11-15T02:47:55.585Z,100733.25
2022-11-15T02:50:25.781Z,100737.00
2022-11-15T02:52:53.014Z,100733.22
2022-11-15T02:55:28.474Z,100730.69
2022-11-15T02:58:27.221Z,100721.84
2022-11-15T03:01:08.451Z,100729.97
2022-11-15T03:03:35.314Z,100711.69
2022-11-15T03:06:02.291Z,100711.19
2022-11-15T03:08:37.978Z,100709.53
2022-11-15T03:11:05.346Z,100698.81
2022-11-15T03:13:37.762Z,100691.06
2022-11-15T03:16:06.914Z,100686.75
2022-11-15T03:18:34.925Z,100683.16
2022-11-15T03:21:04.537Z,100687.91
2022-11-15T03:23:32.591Z,100677.97
2022-11-15T03:26:00.907Z,100675.34
2022-11-15T03:28:35.549Z,100673.63
2022-11-15T03:31:23.379Z,100676.66
2022-11-15T03:33:54.009Z,100671.66
2022-11-15T03:36:22.523Z,100680.41
2022-11-15T03:38:49.466Z,100676.00
2022-11-15T03:41:30.462Z,100673.44
2022-11-15T03:44:01.303Z,100668.81
2022-11-15T03:46:39.123Z,100668.16
2022-11-15T03:49:08.408Z,100651.75
2022-11-15T03:51:35.256Z,100651.69
2022-11-15T03:54:04.304Z,100656.00
2022-11-15T03:56:31.085Z,100651.56
2022-11-15T03:58:57.820Z,100660.44
2022-11-15T04:01:24.738Z,100666.34
2022-11-15T04:03:51.821Z,100668.91
2022-11-15T04:06:18.713Z,100664.88
2022-11-15T04:08:45.481Z,100674.56
2022-11-15T04:11:12.174Z,100661.28
2022-11-15T04:13:38.941Z,100657.81
2022-11-15T04:16:05.978Z,100668.97
2022-11-15T04:18:32.716Z,100666.22
2022-11-15T04:21:18.102Z,100668.06
2022-11-15T04:24:03.586Z,100662.03
2022-11-15T04:26:30.353Z,100662.28
2022-11-15T04:29:15.980Z,100663.78
2022-11-15T04:31:43.225Z,100658.56
2022-11-15T04:34:11.219Z,100664.94
2022-11-15T04:36:56.263Z,100661.22
2022-11-15T04:39:23.018Z,100651.75
2022-11-15T04:41:49.768Z,100657.50
2022-11-15T04:44:17.670Z,100651.53
2022-11-15T04:46:44.950Z,100636.81
2022-11-15T04:49:11.787Z,100646.19
2022-11-15T04:51:38.588Z,100635.41
2022-11-15T04:54:05.374Z,100634.16
2022-11-15T04:56:32.093Z,100632.31
2022-11-15T04:58:59.259Z,100636.87
2022-11-15T05:01:26.091Z,100633.28
2022-11-15T05:04:11.632Z,100628.75
2022-11-15T05:06:38.419Z,100625.97
2022-11-15T05:09:07.675Z,100624.63
2022-11-15T05:11:34.623Z,100621.13
2022-11-15T05:14:01.365Z,100617.56
2022-11-15T05:16:28.166Z,100619.34
2022-11-15T05:18:55.218Z,100616.63
2022-11-15T05:21:22.143Z,100611.59
2022-11-15T05:23:48.894Z,100620.31
2022-11-15T05:26:17.235Z,100622.03
2022-11-15T05:28:44.146Z,100621.84
2022-11-15T05:31:14.811Z,100617.59
2022-11-15T05:33:42.311Z,100615.75
2022-11-15T05:36:09.549Z,100620.22
2022-11-15T05:38:36.345Z,100621.19
2022-11-15T05:41:03.574Z,100619.34
2022-11-15T05:43:32.113Z,100629.06
2022-11-15T05:46:00.219Z,100619.25
2022-11-15T05:48:27.165Z,100616.56
2022-11-15T05:50:54.152Z,100612.34
2022-11-15T05:53:23.016Z,100619.41
2022-11-15T05:55:50.012Z,100619.97
2022-11-15T05:58:16.817Z,100626.13
2022-11-15T06:00:46.175Z,100620.88
2022-11-15T06:03:15.838Z,100625.44
2022-11-15T06:05:42.655Z,100620.97
2022-11-15T06:08:09.447Z,100625.31
2022-11-15T06:10:36.280Z,100620.13
2022-11-15T06:13:04.491Z,100620.22
2022-11-15T06:15:31.442Z,100626.28
2022-11-15T06:18:01.182Z,100633.34
2022-11-15T06:20:28.928Z,100627.25
2022-11-15T06:25:51.208Z,100644.59
2022-11-15T06:28:18.733Z,100647.03
2022-11-15T06:30:49.214Z,100654.22
2022-11-15T06:33:19.904Z,100655.16
2022-11-15T06:35:49.985Z,100650.03
2022-11-15T06:38:17.228Z,100647.37
2022-11-15T06:40:44.291Z,100647.37
2022-11-15T06:43:11.280Z,100648.09
2022-11-15T06:45:38.328Z,100646.94
2022-11-15T06:48:05.452Z,100649.56
2022-11-15T06:50:32.213Z,100641.91
2022-11-15T06:53:03.320Z,100642.78
2022-11-15T06:55:30.235Z,100644.22
2022-11-15T06:57:57.129Z,100642.44
2022-11-15T07:00:24.239Z,100648.81
2022-11-15T07:02:52.377Z,100651.53
2022-11-15T07:05:22.265Z,100644.44
2022-11-15T07:07:59.582Z,100636.66
2022-11-15T07:10:38.675Z,100631.38
2022-11-15T07:13:08.590Z,100632.00
2022-11-15T07:15:36.618Z,100628.97
2022-11-15T07:18:28.987Z,100627.28
2022-11-15T07:21:13.185Z,100634.22
2022-11-15T07:26:41.336Z,100625.53
2022-11-15T07:29:11.284Z,100625.47
2022-11-15T07:31:44.700Z,100612.41
2022-11-15T07:34:32.977Z,100614.09
2022-11-15T07:37:15.088Z,100602.75
2022-11-15T07:39:46.293Z,100605.94
2022-11-15T07:42:47.184Z,100605.44
2022-11-15T07:45:42.896Z,100610.37
2022-11-15T07:54:41.593Z,100599.13
2022-11-15T07:59:59.280Z,100581.88
2022-11-15T08:02:30.943Z,100579.87
2022-11-15T08:04:57.963Z,100581.62
2022-11-15T08:07:26.989Z,100575.50
2022-11-15T08:09:58.202Z,100576.56
2022-11-15T08:12:28.433Z,100575.69
2022-11-15T08:14:59.307Z,100576.50
2022-11-15T08:17:34.611Z,100575.72
2022-11-15T08:20:01.566Z,100580.88
2022-11-15T08:22:29.469Z,100578.38
2022-11-15T08:24:58.304Z,100563.47
2022-11-15T08:27:27.666Z,100558.28
2022-11-15T08:29:59.308Z,100559.09
2022-11-15T08:32:26.577Z,100563.47
2022-11-15T08:34:58.739Z,100559.16
2022-11-15T08:37:56.918Z,100557.34
2022-11-15T08:40:33.623Z,100557.44
2022-11-15T08:43:21.750Z,100551.25
2022-11-15T08:46:13.707Z,100546.09
2022-11-15T08:48:48.507Z,100539.03
2022-11-15T08:51:17.615Z,100538.22
2022-11-15T08:53:52.315Z,100541.72
2022-11-15T08:56:33.621Z,100549.56
2022-11-15T08:59:15.371Z,100551.34
2022-11-15T09:27:26.462Z,100550.41
2022-11-15T09:30:28.017Z,100553.09
2022-11-15T09:33:10.127Z,100555.66
2022-11-15T09:35:41.053Z,100554.88
2022-11-15T09:38:08.754Z,100547.81
2022-11-15T09:40:38.379Z,100546.09
2022-11-15T09:43:36.421Z,100546.06
2022-11-15T09:46:29.025Z,100544.31
2022-11-15T09:48:58.427Z,100549.59
2022-11-15T09:51:48.394Z,100537.16
2022-11-15T10:00:38.935Z,100532.13
2022-11-15T10:03:16.073Z,100530.34
2022-11-15T10:05:47.217Z,100523.31
2022-11-15T10:08:29.599Z,100518.09
2022-11-15T10:11:30.597Z,100518.09
2022-11-15T10:13:51.463Z,100524.22
2022-11-15T10:16:18.681Z,100518.94
2022-11-15T10:19:06.869Z,100509.28
2022-11-15T10:21:53.081Z,100509.31
2022-11-15T10:24:25.700Z,100503.03
2022-11-15T10:26:56.232Z,100496.88
2022-11-15T10:29:28.305Z,100497.59
2022-11-15T10:31:57.312Z,100485.28
2022-11-15T10:34:27.879Z,100492.50
2022-11-15T10:37:23.667Z,100485.44
2022-11-15T10:40:09.588Z,100483.78
2022-11-15T10:42:38.326Z,100493.63
2022-11-15T10:45:23.830Z,100482.25
2022-11-15T10:47:57.607Z,100487.50
2022-11-15T10:50:29.204Z,100467.34
2022-11-15T10:53:00.905Z,100472.53
2022-11-15T10:55:31.290Z,100471.72
2022-11-15T10:58:03.915Z,100463.91
2022-11-15T11:00:33.351Z,100460.22
2022-11-15T11:03:00.407Z,100463.87
2022-11-15T11:05:30.199Z,100451.59
2022-11-15T11:08:04.111Z,100437.50
2022-11-15T11:13:29.011Z,100435.81
2022-11-15T11:16:15.041Z,100429.66
2022-11-15T11:18:47.864Z,100424.53
2022-11-15T11:21:18.581Z,100406.00
2022-11-15T11:24:04.720Z,100415.78
2022-11-15T11:26:39.327Z,100399.91
2022-11-15T11:29:22.805Z,100398.38
2022-11-15T11:31:52.766Z,100405.34
2022-11-15T11:34:28.752Z,100396.63
2022-11-15T11:36:58.488Z,100386.16
2022-11-15T11:39:45.550Z,100376.53
2022-11-15T11:42:19.555Z,100367.59
2022-11-15T11:44:58.598Z,100359.69
2022-11-15T11:47:29.902Z,100358.13
2022-11-15T11:50:19.381Z,100356.28
2022-11-15T11:53:07.382Z,100350.25
2022-11-15T11:55:39.862Z,100351.12
2022-11-15T11:58:24.142Z,100340.59
2022-11-15T12:01:12.555Z,100346.78
2022-11-15T12:03:45.722Z,100354.63
2022-11-15T12:06:12.574Z,100340.59
2022-11-15T12:09:02.747Z,100329.16
2022-11-15T12:11:51.481Z,100330.94
2022-11-15T12:20:30.177Z,100324.00
2022-11-15T12:23:04.908Z,100324.78
2022-11-15T12:25:46.092Z,100322.13
2022-11-15T12:28:28.597Z,100312.47
2022-11-15T12:31:19.300Z,100306.22
2022-11-15T12:33:48.794Z,100315.66
2022-11-15T12:36:23.998Z,100312.34
2022-11-15T12:39:01.133Z,100312.47
2022-11-15T12:41:29.408Z,100304.47
2022-11-15T12:43:58.555Z,100307.87
2022-11-15T12:46:31.246Z,100294.00
2022-11-15T12:49:04.897Z,100289.62
2022-11-15T12:51:43.804Z,100299.94
2022-11-15T12:57:17.859Z,100289.03
2022-11-15T13:00:05.348Z,100281.75
2022-11-15T13:02:34.637Z,100278.16
2022-11-15T13:05:21.084Z,100274.81
2022-11-15T13:07:51.870Z,100273.94
2022-11-15T13:10:28.911Z,100272.28
2022-11-15T13:12:56.508Z,100274.91
2022-11-15T13:15:46.136Z,100260.19
2022-11-15T13:18:32.102Z,100268.88
2022-11-15T13:21:23.875Z,100267.91
2022-11-15T13:23:55.175Z,100252.88
2022-11-15T13:26:22.445Z,100243.34
2022-11-15T13:28:55.918Z,100253.78
2022-11-15T13:31:34.702Z,100245.19
2022-11-15T13:34:07.323Z,100251.25
2022-11-15T13:36:44.918Z,100240.37
2022-11-15T13:39:35.750Z,100247.53
2022-11-15T13:42:03.042Z,100244.78
2022-11-15T13:44:33.672Z,100242.28
2022-11-15T13:47:09.187Z,100240.66
2022-11-15T13:49:36.563Z,100236.97
2022-11-15T13:52:07.976Z,100229.72
2022-11-15T13:54:41.545Z,100235.31
2022-11-15T13:57:19.233Z,100241.63
2022-11-15T13:59:59.031Z,100235.88
2022-11-15T14:02:37.734Z,100232.72
2022-11-15T14:05:30.304Z,100236.19
2022-11-15T14:08:01.550Z,100240.47
2022-11-15T14:10:34.747Z,100228.22
2022-11-15T14:13:06.325Z,100233.53
2022-11-15T14:15:34.420Z,100224.41
2022-11-15T14:18:04.069Z,100223.63
2022-11-15T14:20:41.287Z,100219.97
2022-11-15T14:23:39.066Z,100219.13
2022-11-15T14:26:14.550Z,100214.59
2022-11-15T14:28:57.747Z,100208.06
2022-11-15T14:31:28.368Z,100196.72
2022-11-15T14:34:07.472Z,100196.09
2022-11-15T14:36:42.633Z,100201.91
2022-11-15T14:39:12.507Z,100200.03
2022-11-15T14:41:41.205Z,100188.56
2022-11-15T14:44:14.138Z,100187.97
2022-11-15T14:46:43.233Z,100183.88
2022-11-15T14:49:10.100Z,100190.53
2022-11-15T14:51:39.326Z,100180.66
2022-11-15T14:54:12.083Z,100173.28
2022-11-15T14:56:48.290Z,100170.41
2022-11-15T14:59:23.736Z,100171.75
2022-11-15T15:01:56.993Z,100167.72
2022-11-15T15:04:28.208Z,100168.28
2022-11-15T15:07:07.120Z,100174.91
2022-11-15T15:12:23.028Z,100167.75
2022-11-15T15:14:58.893Z,100163.06
2022-11-15T15:17:29.001Z,100164.47
2022-11-15T15:20:13.297Z,100159.13
2022-11-15T15:22:40.598Z,100154.50
2022-11-15T15:25:44.601Z,100149.00
2022-11-15T15:28:11.418Z,100149.09
2022-11-15T15:30:38.487Z,100142.56
2022-11-15T15:33:05.359Z,100146.84
2022-11-15T15:35:33.886Z,100147.47
2022-11-15T15:38:01.139Z,100145.03
2022-11-15T15:40:29.725Z,100141.81
2022-11-15T15:42:56.707Z,100138.63
2022-11-15T15:45:23.489Z,100139.34
2022-11-15T15:47:56.594Z,100138.34
2022-11-15T15:56:41.260Z,100127.66
2022-11-15T15:59:27.987Z,100126.28
2022-11-15T16:02:15.430Z,100121.44
2022-11-15T16:13:40.313Z,100117.59
2022-11-15T16:22:58.070Z,100121.09
2022-11-15T16:26:11.565Z,100114.34
2022-11-15T16:34:41.100Z,100103.97
2022-11-15T16:38:05.125Z,100101.87
2022-11-15T16:43:48.358Z,100102.44
2022-11-15T16:46:50.959Z,100085.63
2022-11-15T17:04:45.179Z,100078.97
2022-11-15T17:07:36.014Z,100068.50
2022-11-15T17:13:10.528Z,100070.47
2022-11-15T17:16:08.405Z,100059.69
2022-11-15T17:19:13.407Z,100057.81
2022-11-15T17:21:47.639Z,100056.03
2022-11-15T17:25:07.656Z,100055.16
2022-11-15T17:27:53.233Z,100057.75
2022-11-15T17:30:22.950Z,100049.00
2022-11-15T17:35:58.937Z,100051.84
2022-11-15T17:44:31.374Z,100041.16
2022-11-15T17:47:13.558Z,100042.22
2022-11-15T17:52:38.270Z,100040.47
2022-11-15T17:55:15.946Z,100024.22
2022-11-15T17:58:18.649Z,100026.78
2022-11-15T18:09:47.101Z,100022.88
2022-11-15T18:12:21.406Z,100020.13
2022-11-15T18:24:21.030Z,100011.97
2022-11-15T18:30:32.213Z,100009.28
2022-11-15T18:33:13.314Z,100003.00
2022-11-15T18:38:53.188Z,100005.59
2022-11-15T18:41:46.851Z,100003.59
2022-11-15T18:44:25.704Z,100003.78
2022-11-15T18:47:26.613Z,100008.38
2022-11-15T18:53:18.349Z,100003.09
2022-11-15T18:55:56.392Z,100001.50
2022-11-15T18:59:11.675Z,99990.12
2022-11-15T19:01:54.329Z,99999.03
2022-11-15T19:10:20.572Z,99994.03
2022-11-15T19:16:03.818Z,99986.22
2022-11-15T19:30:39.227Z,99966.22
2022-11-15T19:47:23.923Z,99959.53
2022-11-15T19:50:29.765Z,99959.28
2022-11-15T19:56:27.263Z,99961.47
2022-11-15T20:02:19.912Z,99958.47
2022-11-15T20:20:10.275Z,99939.50
2022-11-15T20:23:16.955Z,99936.16
2022-11-15T20:29:02.904Z,99925.31
2022-11-15T20:37:36.881Z,99910.25
2022-11-15T20:40:47.937Z,99913.72
2022-11-15T20:43:42.677Z,99903.91
2022-11-15T20:46:21.908Z,99907.63
2022-11-15T20:57:52.820Z,99895.19
2022-11-15T21:03:59.761Z,99879.37
2022-11-15T21:10:32.754Z,99873.66
2022-11-15T21:16:06.564Z,99874.22
2022-11-15T21:21:42.851Z,99861.09
2022-11-15T21:24:30.676Z,99859.81
2022-11-15T21:30:25.219Z,99858.22
2022-11-15T21:33:02.701Z,99854.69
2022-11-15T21:35:53.612Z,99852.75
2022-11-15T21:41:28.848Z,99849.06
2022-11-15T21:44:24.494Z,99841.00
2022-11-15T21:47:35.264Z,99839.81
2022-11-15T21:59:01.342Z,99828.22
2022-11-15T22:02:10.969Z,99823.06
2022-11-15T22:04:57.548Z,99824.66
2022-11-15T22:07:48.370Z,99810.13
2022-11-15T22:10:22.317Z,99813.44
2022-11-15T22:19:02.652Z,99799.53
2022-11-15T22:21:37.169Z,99796.13
2022-11-15T22:36:42.412Z,99782.78
2022-11-15T22:42:33.991Z,99777.69
2022-11-15T22:45:33.189Z,99772.72
2022-11-15T22:54:11.861Z,99758.91
2022-11-15T22:57:25.604Z,99764.69
2022-11-15T23:03:25.239Z,99765.44
2022-11-15T23:14:58.314Z,99736.72
2022-11-15T23:17:56.148Z,99728.38
2022-11-15T23:21:01.502Z,99721.50
2022-11-15T23:23:45.022Z,99721.75
2022-11-15T23:26:25.803Z,99725.59
2022-11-15T23:29:20.207Z,99715.44
2022-11-15T23:38:36.398Z,99707.53
2022-11-15T23:41:20.865Z,99700.75
2022-11-15T23:44:45.553Z,99707.66
2022-11-15T23:47:44.937Z,99694.75
2022-11-15T23:50:39.434Z,99696.03
2022-11-15T23:53:39.551Z,99688.81
2022-11-15T23:59:22.340Z,99679.94
